createdAt,value
2019-04-11T00:01:17.191Z,7.28
2019-04-11T00:03:43.873Z,7.35
2019-04-11T00:06:10.073Z,7.22
2019-04-11T00:08:37.162Z,7.18
2019-04-11T00:11:03.778Z,7.22
2019-04-11T00:13:33.037Z,7.22
2019-04-11T00:15:57.687Z,7.11
2019-04-11T00:18:23.514Z,7.08
2019-04-11T00:20:50.596Z,7.07
2019-04-11T00:23:16.494Z,7.12
2019-04-11T00:25:42.321Z,7.01
2019-04-11T00:28:08.285Z,6.98
2019-04-11T00:30:34.494Z,6.93
2019-04-11T00:33:00.286Z,6.93
2019-04-11T00:35:26.365Z,6.98
2019-04-11T00:37:52.174Z,6.90
2019-04-11T00:40:18.843Z,6.80
2019-04-11T00:42:47.056Z,6.76
2019-04-11T00:45:13.668Z,6.76
2019-04-11T00:47:39.835Z,6.72
2019-04-11T00:50:05.769Z,6.75
2019-04-11T00:52:31.806Z,6.66
2019-04-11T00:54:57.571Z,6.63
2019-04-11T00:57:23.360Z,6.56
2019-04-11T00:59:49.163Z,6.48
2019-04-11T01:02:15.621Z,6.52
2019-04-11T01:04:41.485Z,6.63
2019-04-11T01:07:07.273Z,6.55
2019-04-11T01:09:34.643Z,6.58
2019-04-11T01:12:00.530Z,6.60
2019-04-11T01:14:26.420Z,6.56
2019-04-11T01:16:53.697Z,6.58
2019-04-11T01:19:20.964Z,6.59
2019-04-11T01:21:46.866Z,6.52
2019-04-11T01:24:15.657Z,6.48
2019-04-11T01:26:41.620Z,6.49
2019-04-11T01:29:11.340Z,6.43
2019-04-11T01:31:39.901Z,6.39
2019-04-11T01:34:06.493Z,6.41
2019-04-11T01:36:33.228Z,6.41
2019-04-11T01:39:17.669Z,6.36
2019-04-11T01:41:44.732Z,6.34
2019-04-11T01:44:10.977Z,6.30
2019-04-11T01:46:38.046Z,6.36
2019-04-11T01:49:06.133Z,6.21
2019-04-11T01:51:32.027Z,6.18
2019-04-11T01:53:57.795Z,6.00
2019-04-11T01:56:23.583Z,5.95
2019-04-11T01:58:49.669Z,5.96
2019-04-11T02:01:20.947Z,5.97
2019-04-11T02:04:06.115Z,6.05
2019-04-11T02:06:32.058Z,6.00
2019-04-11T02:11:23.875Z,5.95
2019-04-11T02:13:50.307Z,5.92
2019-04-11T02:16:16.787Z,5.84
2019-04-11T02:18:43.649Z,5.82
2019-04-11T02:21:09.532Z,5.71
2019-04-11T02:26:41.072Z,5.59
2019-04-11T02:29:08.991Z,5.59
2019-04-11T02:31:36.521Z,5.57
2019-04-11T02:34:04.415Z,5.51
2019-04-11T02:36:32.157Z,5.55
2019-04-11T02:39:02.160Z,5.47
2019-04-11T02:41:27.518Z,5.42
2019-04-11T02:43:55.056Z,5.31
2019-04-11T02:46:31.936Z,5.18
2019-04-11T02:48:49.783Z,5.21
2019-04-11T02:51:15.875Z,5.18
2019-04-11T02:53:41.926Z,5.19
2019-04-11T02:56:09.310Z,5.19
2019-04-11T02:58:39.142Z,5.15
2019-04-11T03:01:07.922Z,5.16
2019-04-11T03:03:34.197Z,5.15
2019-04-11T03:06:02.173Z,5.16
2019-04-11T03:08:29.825Z,5.07
2019-04-11T03:10:57.504Z,5.03
2019-04-11T03:13:25.253Z,5.00
2019-04-11T03:16:07.184Z,4.98
2019-04-11T03:18:40.730Z,4.86
2019-04-11T03:20:54.891Z,4.91
2019-04-11T03:23:18.691Z,4.79
2019-04-11T03:25:44.875Z,4.78
2019-04-11T03:28:16.756Z,4.81
2019-04-11T03:31:01.799Z,4.81
2019-04-11T03:36:27.541Z,4.56
2019-04-11T03:38:29.309Z,4.60
2019-04-11T03:40:54.013Z,4.59
2019-04-11T03:43:13.378Z,4.69
2019-04-11T03:45:49.638Z,4.53
2019-04-11T03:48:10.135Z,4.57
2019-04-11T03:50:26.038Z,4.56
2019-04-11T03:52:51.938Z,4.54
2019-04-11T03:55:19.358Z,4.50
2019-04-11T03:57:47.055Z,4.32
2019-04-11T04:00:15.435Z,4.30
2019-04-11T04:02:41.430Z,4.36
2019-04-11T04:05:08.788Z,4.35
2019-04-11T04:07:35.980Z,4.39
2019-04-11T04:10:05.194Z,4.40
2019-04-11T04:12:33.403Z,4.30
2019-04-11T04:15:03.945Z,4.16
2019-04-11T04:17:32.843Z,4.13
2019-04-11T04:20:04.941Z,4.16
2019-04-11T04:22:49.958Z,4.10
2019-04-11T04:25:16.645Z,4.13
2019-04-11T04:27:43.033Z,4.09
2019-04-11T04:30:13.694Z,3.13
2019-04-11T04:32:40.529Z,3.90
2019-04-11T04:35:10.429Z,3.92
2019-04-11T04:37:34.849Z,3.87
2019-04-11T04:40:21.637Z,3.83
2019-04-11T04:42:35.869Z,3.86
2019-04-11T04:44:58.288Z,3.84
2019-04-11T04:47:32.640Z,3.83
2019-04-11T04:49:52.378Z,3.76
2019-04-11T04:52:20.806Z,3.74
2019-04-11T04:54:48.341Z,3.75
2019-04-11T04:57:15.525Z,3.80
2019-04-11T04:59:42.544Z,3.81
2019-04-11T05:02:10.530Z,3.80
2019-04-11T05:04:38.148Z,3.86
2019-04-11T05:07:05.291Z,3.78
2019-04-11T05:09:32.048Z,3.67
2019-04-11T05:11:57.948Z,3.79
2019-04-11T05:14:25.261Z,3.87
2019-04-11T05:16:52.531Z,3.93
2019-04-11T05:19:22.560Z,3.80
2019-04-11T05:21:49.903Z,3.84
2019-04-11T05:24:18.686Z,3.87
2019-04-11T05:26:44.585Z,3.77
2019-04-11T05:29:11.269Z,3.86
2019-04-11T05:31:38.726Z,3.91
2019-04-11T05:34:07.819Z,3.81
2019-04-11T05:36:34.017Z,3.91
2019-04-11T05:39:04.914Z,4.04
2019-04-11T05:41:33.704Z,4.05
2019-04-11T05:44:03.453Z,4.02
2019-04-11T05:46:35.360Z,4.08
2019-04-11T05:49:00.527Z,4.05
2019-04-11T05:51:26.437Z,4.11
2019-04-11T05:53:54.491Z,4.29
2019-04-11T05:56:21.933Z,4.40
2019-04-11T05:58:47.993Z,4.58
2019-04-11T06:01:18.253Z,4.67
2019-04-11T06:03:45.489Z,4.70
2019-04-11T06:06:16.395Z,4.50
2019-04-11T06:08:44.045Z,4.62
2019-04-11T06:11:17.270Z,4.76
2019-04-11T06:16:12.549Z,4.96
2019-04-11T06:21:46.949Z,5.38
2019-04-11T06:24:27.966Z,5.49
2019-04-11T06:27:11.382Z,5.54
2019-04-11T06:29:55.902Z,5.56
2019-04-11T06:32:29.908Z,5.61
2019-04-11T06:34:57.846Z,5.79
2019-04-11T06:37:42.028Z,5.97
2019-04-11T06:40:26.425Z,6.17
2019-04-11T06:42:55.952Z,6.29
2019-04-11T06:45:41.838Z,6.40
2019-04-11T06:48:15.697Z,6.40
2019-04-11T06:50:47.195Z,6.42
2019-04-11T06:53:14.839Z,6.63
2019-04-11T06:55:45.318Z,7.05
2019-04-11T06:58:16.181Z,7.24
2019-04-11T07:00:43.903Z,7.38
2019-04-11T07:03:19.626Z,7.64
2019-04-11T07:05:40.627Z,7.74
2019-04-11T07:08:07.697Z,8.03
2019-04-11T07:10:44.737Z,8.35
2019-04-11T07:13:30.900Z,8.72
2019-04-11T07:16:18.462Z,8.92
2019-04-11T07:18:52.764Z,9.33
2019-04-11T07:21:19.086Z,9.74
2019-04-11T07:24:03.468Z,9.97
2019-04-11T07:26:37.584Z,10.12
2019-04-11T07:31:58.886Z,10.88
2019-04-11T07:34:35.174Z,11.17
2019-04-11T07:37:06.698Z,11.52
2019-04-11T07:39:51.842Z,11.78
2019-04-11T07:42:25.968Z,12.15
2019-04-11T07:44:53.854Z,12.14
2019-04-11T07:47:26.428Z,12.11
2019-04-11T07:49:55.221Z,12.40
2019-04-11T07:52:25.001Z,12.63
2019-04-11T07:54:51.405Z,12.53
2019-04-11T07:57:33.005Z,12.49
2019-04-11T08:00:17.081Z,12.71
2019-04-11T08:03:02.051Z,12.66
2019-04-11T08:05:46.803Z,12.72
2019-04-11T08:08:34.586Z,12.87
2019-04-11T08:11:02.720Z,12.24
2019-04-11T08:13:36.926Z,12.49
2019-04-11T08:16:20.388Z,12.21
2019-04-11T08:18:54.230Z,12.18
2019-04-11T08:21:24.419Z,12.26
2019-04-11T08:23:52.144Z,12.25
2019-04-11T08:26:35.847Z,12.40
2019-04-11T08:29:08.971Z,12.20
2019-04-11T08:31:34.637Z,12.34
2019-04-11T08:34:00.690Z,12.40
2019-04-11T08:36:47.217Z,12.48
2019-04-11T08:39:15.842Z,12.40
2019-04-11T08:41:47.552Z,12.31
2019-04-11T08:44:13.543Z,12.51
2019-04-11T08:46:42.689Z,12.58
2019-04-11T08:49:28.644Z,12.72
2019-04-11T08:51:54.393Z,12.93
2019-04-11T08:54:37.631Z,12.70
2019-04-11T08:57:03.898Z,12.81
2019-04-11T08:59:31.886Z,12.70
2019-04-11T09:01:58.225Z,12.65
2019-04-11T09:04:43.294Z,12.63
2019-04-11T09:07:10.688Z,12.70
2019-04-11T09:09:56.153Z,13.01
2019-04-11T09:12:22.624Z,13.21
2019-04-11T09:14:50.686Z,13.33
2019-04-11T09:17:19.564Z,13.43
2019-04-11T09:19:55.019Z,13.40
2019-04-11T09:22:26.891Z,13.67
2019-04-11T09:25:10.905Z,13.78
2019-04-11T09:27:45.019Z,14.00
2019-04-11T09:30:32.673Z,14.18
2019-04-11T09:33:17.456Z,14.29
2019-04-11T09:35:55.474Z,14.59
2019-04-11T09:38:26.520Z,14.71
2019-04-11T09:41:00.545Z,14.32
2019-04-11T09:43:31.776Z,14.42
2019-04-11T09:46:18.570Z,14.45
2019-04-11T09:48:46.475Z,14.62
2019-04-11T09:51:33.758Z,14.73
2019-04-11T09:54:01.585Z,14.65
2019-04-11T09:56:45.172Z,14.69
2019-04-11T09:59:25.129Z,15.26
2019-04-11T10:02:10.112Z,15.32
2019-04-11T10:04:37.241Z,15.45
2019-04-11T10:07:21.757Z,15.52
2019-04-11T10:10:04.594Z,15.85
2019-04-11T10:12:48.908Z,16.07
2019-04-11T10:15:15.463Z,15.94
2019-04-11T10:18:01.009Z,16.27
2019-04-11T10:20:26.947Z,16.60
2019-04-11T10:23:04.969Z,16.76
2019-04-11T10:25:32.973Z,16.65
2019-04-11T10:28:03.282Z,16.62
2019-04-11T10:30:33.593Z,16.85
2019-04-11T10:33:02.854Z,16.75
2019-04-11T10:35:46.214Z,16.69
2019-04-11T10:38:14.068Z,16.57
2019-04-11T10:40:44.228Z,16.95
2019-04-11T10:43:10.042Z,16.79
2019-04-11T10:45:46.954Z,16.64
2019-04-11T10:48:13.890Z,16.92
2019-04-11T10:50:58.473Z,17.34
2019-04-11T10:53:24.940Z,17.45
2019-04-11T10:56:10.649Z,16.89
2019-04-11T10:58:38.871Z,16.43
2019-04-11T11:01:07.524Z,17.24
2019-04-11T11:03:53.462Z,17.98
2019-04-11T11:06:21.869Z,17.84
2019-04-11T11:09:05.937Z,17.84
2019-04-11T11:11:34.571Z,17.91
2019-04-11T11:14:05.184Z,18.16
2019-04-11T11:16:34.183Z,18.36
2019-04-11T11:19:33.572Z,18.36
2019-04-11T11:21:45.045Z,18.10
2019-04-11T11:24:31.690Z,18.19
2019-04-11T11:26:58.773Z,18.47
2019-04-11T11:29:30.092Z,18.20
2019-04-11T11:31:57.866Z,18.61
2019-04-11T11:34:25.595Z,18.49
2019-04-11T11:36:54.819Z,18.81
2019-04-11T11:39:33.214Z,18.98
2019-04-11T11:42:17.936Z,18.98
2019-04-11T11:44:53.003Z,18.71
2019-04-11T11:47:39.749Z,18.33
2019-04-11T11:50:11.461Z,18.33
2019-04-11T11:52:54.125Z,18.17
2019-04-11T11:55:25.177Z,18.68
2019-04-11T11:57:53.187Z,18.68
2019-04-11T12:00:21.309Z,18.95
2019-04-11T12:02:58.989Z,19.32
2019-04-11T12:05:29.956Z,19.32
2019-04-11T12:07:58.104Z,19.66
2019-04-11T12:10:26.301Z,19.67
2019-04-11T12:12:54.269Z,19.67
2019-04-11T12:15:22.797Z,19.55
2019-04-11T12:18:09.881Z,19.34
2019-04-11T12:20:45.316Z,19.59
2019-04-11T12:23:29.525Z,20.00
2019-04-11T12:25:55.747Z,19.83
2019-04-11T12:28:23.559Z,19.89
2019-04-11T12:30:53.063Z,19.98
2019-04-11T12:33:37.903Z,20.07
2019-04-11T12:36:09.811Z,20.19
2019-04-11T12:38:54.785Z,20.23
2019-04-11T12:41:25.262Z,20.17
2019-04-11T12:44:08.177Z,20.61
2019-04-11T12:46:48.062Z,19.87
2019-04-11T12:49:27.972Z,19.44
2019-04-11T12:52:12.922Z,19.49
2019-04-11T12:54:40.931Z,19.80
2019-04-11T12:57:25.779Z,20.06
2019-04-11T12:59:53.476Z,20.25
2019-04-11T13:02:33.275Z,20.51
2019-04-11T13:05:00.086Z,20.61
2019-04-11T13:07:33.705Z,20.68
2019-04-11T13:10:01.574Z,20.72
2019-04-11T13:12:34.876Z,20.61
2019-04-11T13:15:08.235Z,20.57
2019-04-11T13:17:52.893Z,20.53
2019-04-11T13:20:37.606Z,20.57
2019-04-11T13:23:21.962Z,20.16
2019-04-11T13:26:07.730Z,20.37
2019-04-11T13:28:33.640Z,20.35
2019-04-11T13:31:01.400Z,20.31
2019-04-11T13:33:27.206Z,20.24
2019-04-11T13:36:11.812Z,20.54
2019-04-11T13:38:38.077Z,20.20
2019-04-11T13:41:22.552Z,19.69
2019-04-11T13:43:50.247Z,20.23
2019-04-11T13:46:39.982Z,19.87
2019-04-11T13:49:19.613Z,20.34
2019-04-11T13:52:03.929Z,20.05
2019-04-11T13:54:34.660Z,20.45
2019-04-11T13:57:05.335Z,20.55
2019-04-11T13:59:35.915Z,20.25
2019-04-11T14:02:14.724Z,20.30
2019-04-11T14:04:48.624Z,20.11
2019-04-11T14:07:18.644Z,20.38
2019-04-11T14:10:04.425Z,20.66
2019-04-11T14:12:33.325Z,20.84
2019-04-11T14:15:01.274Z,20.93
2019-04-11T14:17:45.550Z,20.88
2019-04-11T14:20:29.115Z,21.24
2019-04-11T14:23:02.503Z,21.22
2019-04-11T14:25:36.630Z,21.02
2019-04-11T14:28:04.777Z,20.50
2019-04-11T14:30:34.997Z,20.57
2019-04-11T14:33:01.091Z,20.80
2019-04-11T14:35:37.985Z,20.38
2019-04-11T14:38:11.496Z,20.19
2019-04-11T14:40:45.406Z,20.34
2019-04-11T14:43:19.406Z,20.71
2019-04-11T14:45:53.097Z,20.71
2019-04-11T14:48:20.921Z,20.66
2019-04-11T14:50:57.847Z,20.84
2019-04-11T14:53:41.078Z,20.95
2019-04-11T14:56:11.491Z,20.86
2019-04-11T14:58:59.598Z,21.10
2019-04-11T15:01:28.188Z,21.73
2019-04-11T15:04:14.052Z,22.09
2019-04-11T15:06:45.209Z,22.24
2019-04-11T15:09:16.898Z,21.76
2019-04-11T15:11:47.123Z,21.60
2019-04-11T15:14:15.788Z,21.57
2019-04-11T15:16:50.764Z,21.60
2019-04-11T15:19:16.598Z,21.57
2019-04-11T15:22:01.349Z,22.19
2019-04-11T15:24:27.161Z,22.38
2019-04-11T15:27:11.611Z,21.79
2019-04-11T15:29:40.793Z,22.15
2019-04-11T15:32:23.414Z,21.94
2019-04-11T15:34:49.824Z,22.20
2019-04-11T15:37:35.432Z,21.96
2019-04-11T15:40:12.142Z,21.65
2019-04-11T15:42:42.615Z,21.78
2019-04-11T15:45:27.143Z,21.81
2019-04-11T15:48:06.890Z,21.47
2019-04-11T15:50:50.906Z,21.30
2019-04-11T15:53:28.140Z,21.32
2019-04-11T15:56:13.229Z,20.82
2019-04-11T15:58:57.569Z,20.73
2019-04-11T16:01:44.957Z,20.59
2019-04-11T16:04:27.898Z,20.43
2019-04-11T16:07:08.647Z,20.23
2019-04-11T16:09:34.848Z,20.05
2019-04-11T16:12:09.188Z,19.87
2019-04-11T16:14:34.988Z,19.62
2019-04-11T16:17:13.410Z,19.61
2019-04-11T16:19:40.911Z,19.54
2019-04-11T16:22:25.604Z,19.18
2019-04-11T16:24:53.293Z,18.67
2019-04-11T16:27:27.084Z,18.41
2019-04-11T16:30:04.146Z,18.49
2019-04-11T16:32:32.132Z,18.03
2019-04-11T16:35:02.662Z,17.68
2019-04-11T16:37:29.055Z,17.87
2019-04-11T16:40:13.734Z,17.67
2019-04-11T16:42:41.520Z,18.04
2019-04-11T16:45:25.984Z,17.62
2019-04-11T16:47:56.971Z,16.99
2019-04-11T16:50:26.117Z,16.71
2019-04-11T16:52:52.193Z,16.90
2019-04-11T16:55:21.033Z,16.46
2019-04-11T16:57:47.133Z,16.25
2019-04-11T17:00:20.426Z,16.34
2019-04-11T17:02:44.288Z,15.63
2019-04-11T17:05:10.413Z,15.63
2019-04-11T17:07:45.141Z,15.17
2019-04-11T17:10:12.879Z,14.95
2019-04-11T17:12:38.670Z,14.76
2019-04-11T17:15:05.064Z,14.59
2019-04-11T17:17:31.582Z,14.22
2019-04-11T17:19:57.749Z,14.02
2019-04-11T17:22:23.574Z,13.73
2019-04-11T17:24:49.652Z,13.61
2019-04-11T17:27:15.479Z,13.48
2019-04-11T17:29:44.067Z,13.16
2019-04-11T17:32:09.880Z,13.09
2019-04-11T17:34:35.764Z,13.15
2019-04-11T17:37:02.878Z,13.12
2019-04-11T17:39:29.223Z,12.86
2019-04-11T17:41:55.018Z,12.52
2019-04-11T17:44:21.082Z,12.41
2019-04-11T17:46:50.160Z,12.16
2019-04-11T17:49:16.218Z,12.13
2019-04-11T17:51:55.334Z,12.01
2019-04-11T17:54:12.872Z,12.11
2019-04-11T17:56:42.039Z,12.17
2019-04-11T17:59:07.852Z,12.19
2019-04-11T18:01:37.815Z,12.03
2019-04-11T18:04:01.879Z,11.81
2019-04-11T18:06:28.575Z,11.62
2019-04-11T18:08:54.691Z,11.48
2019-04-11T18:11:20.636Z,11.53
2019-04-11T18:13:46.464Z,11.56
2019-04-11T18:16:12.551Z,11.41
2019-04-11T18:18:41.121Z,11.31
2019-04-11T18:21:07.926Z,11.26
2019-04-11T18:23:37.186Z,11.25
2019-04-11T18:26:03.923Z,11.13
2019-04-11T18:28:30.042Z,10.96
2019-04-11T18:30:55.874Z,10.87
2019-04-11T18:33:24.793Z,10.67
2019-04-11T18:35:50.954Z,10.67
2019-04-11T18:38:19.538Z,10.36
2019-04-11T18:40:45.625Z,10.32
2019-04-11T18:43:16.275Z,10.26
2019-04-11T18:45:42.800Z,10.24
2019-04-11T18:48:08.627Z,10.13
2019-04-11T18:50:34.799Z,10.18
2019-04-11T18:53:00.635Z,10.11
2019-04-11T18:55:26.952Z,10.00
2019-04-11T18:57:52.757Z,9.89
2019-04-11T19:00:23.160Z,10.00
2019-04-11T19:02:49.222Z,9.79
2019-04-11T19:05:15.529Z,9.77
2019-04-11T19:07:43.083Z,9.72
2019-04-11T19:10:14.956Z,9.60
2019-04-11T19:12:40.678Z,9.60
2019-04-11T19:15:06.898Z,9.52
2019-04-11T19:17:32.796Z,9.46
2019-04-11T19:20:03.001Z,9.51
2019-04-11T19:22:37.587Z,9.45
2019-04-11T19:24:56.537Z,9.41
2019-04-11T19:27:22.389Z,9.40
2019-04-11T19:29:48.569Z,9.37
2019-04-11T19:32:14.384Z,9.32
2019-04-11T19:34:40.229Z,9.08
2019-04-11T19:37:06.012Z,9.34
2019-04-11T19:39:31.815Z,9.27
2019-04-11T19:41:59.913Z,9.12
2019-04-11T19:44:25.758Z,9.02
2019-04-11T19:46:51.831Z,9.00
2019-04-11T19:49:17.866Z,8.90
2019-04-11T19:51:43.682Z,8.78
2019-04-11T19:54:14.532Z,8.75
2019-04-11T19:56:45.933Z,8.75
2019-04-11T19:59:11.739Z,8.70
2019-04-11T20:01:37.839Z,8.58
2019-04-11T20:04:03.686Z,8.52
2019-04-11T20:06:29.475Z,8.47
2019-04-11T20:08:58.308Z,8.37
2019-04-11T20:11:24.111Z,8.24
2019-04-11T20:13:51.201Z,8.22
2019-04-11T20:16:17.088Z,8.24
2019-04-11T20:18:51.392Z,8.17
2019-04-11T20:21:16.219Z,8.16
2019-04-11T20:23:42.476Z,8.13
2019-04-11T20:26:08.306Z,8.06
2019-04-11T20:28:37.215Z,8.06
2019-04-11T20:31:03.031Z,8.02
2019-04-11T20:33:33.836Z,7.95
2019-04-11T20:35:58.712Z,8.04
2019-04-11T20:38:24.557Z,7.93
2019-04-11T20:40:52.631Z,7.79
2019-04-11T20:43:18.584Z,7.59
2019-04-11T20:45:45.011Z,7.63
2019-04-11T20:48:11.111Z,7.67
2019-04-11T20:50:36.920Z,7.62
2019-04-11T20:53:12.675Z,7.69
2019-04-11T20:55:31.314Z,7.72
2019-04-11T20:57:57.269Z,7.77
2019-04-11T21:00:27.825Z,7.78
2019-04-11T21:02:58.126Z,7.65
2019-04-11T21:05:21.907Z,7.55
2019-04-11T21:07:48.061Z,7.53
2019-04-11T21:10:16.957Z,7.51
2019-04-11T21:12:43.185Z,7.50
2019-04-11T21:15:09.501Z,7.32
2019-04-11T21:17:35.409Z,7.29
2019-04-11T21:20:01.836Z,7.20
2019-04-11T21:22:27.644Z,7.17
2019-04-11T21:24:53.459Z,7.17
2019-04-11T21:27:28.532Z,7.04
2019-04-11T21:29:54.122Z,7.10
2019-04-11T21:32:19.942Z,7.01
2019-04-11T21:34:46.074Z,6.95
2019-04-11T21:37:11.870Z,6.93
2019-04-11T21:39:37.686Z,6.92
2019-04-11T21:42:06.731Z,6.87
2019-04-11T21:44:36.006Z,6.78
2019-04-11T21:47:01.429Z,6.82
2019-04-11T21:49:27.510Z,6.66
2019-04-11T21:51:53.613Z,6.64
2019-04-11T21:54:22.436Z,6.53
2019-04-11T21:56:49.593Z,6.57
2019-04-11T21:59:20.051Z,6.55
2019-04-11T22:01:43.948Z,6.44
2019-04-11T22:04:10.362Z,6.51
2019-04-11T22:06:36.163Z,6.25
2019-04-11T22:09:04.814Z,6.23
2019-04-11T22:11:30.134Z,6.25
2019-04-11T22:13:58.888Z,6.22
2019-04-11T22:16:24.654Z,6.20
2019-04-11T22:18:53.519Z,6.23
2019-04-11T22:21:19.618Z,6.13
2019-04-11T22:23:49.254Z,6.04
2019-04-11T22:26:15.134Z,6.17
2019-04-11T22:28:40.976Z,6.14
2019-04-11T22:31:06.772Z,6.12
2019-04-11T22:33:40.529Z,6.05
2019-04-11T22:36:06.621Z,6.00
2019-04-11T22:38:32.440Z,5.91
2019-04-11T22:41:01.549Z,5.89
2019-04-11T22:43:25.975Z,5.94
2019-04-11T22:45:51.853Z,5.90
2019-04-11T22:48:17.643Z,5.90
2019-04-11T22:50:43.474Z,5.80
2019-04-11T22:53:12.815Z,5.65
2019-04-11T22:55:38.950Z,5.72
2019-04-11T22:58:04.703Z,5.75
2019-04-11T23:00:33.554Z,5.63
2019-04-11T23:03:16.886Z,5.60
2019-04-11T23:05:41.243Z,5.63
2019-04-11T23:08:07.080Z,5.70
2019-04-11T23:10:33.223Z,5.67
2019-04-11T23:12:59.006Z,5.60
2019-04-11T23:15:24.826Z,5.66
2019-04-11T23:17:50.922Z,5.64
2019-04-11T23:20:16.709Z,5.64
2019-04-11T23:22:43.478Z,5.65
2019-04-11T23:25:09.540Z,5.62
2019-04-11T23:27:35.630Z,5.58
2019-04-11T23:30:01.853Z,5.44
2019-04-11T23:32:27.958Z,5.41
2019-04-11T23:34:53.803Z,5.37
2019-04-11T23:37:21.114Z,5.37
2019-04-11T23:39:47.595Z,5.25
2019-04-11T23:42:13.398Z,5.28
2019-04-11T23:44:39.350Z,5.28
2019-04-11T23:47:05.174Z,5.28
2019-04-11T23:49:31.315Z,5.22
2019-04-11T23:51:57.375Z,5.23
2019-04-11T23:54:23.470Z,5.12
2019-04-11T23:56:49.288Z,5.12
2019-04-11T23:59:17.889Z,5.01
